Česky Dansk Deutsch English Español Suomi Français Magyar Italiano Nederlands norsk Polski Português svenska Türkçe

 

Het Weer

Calvi (Frankrijk)

13:00, 23 augustus 2016 (GMT)

NWNNE
WE
SWSSE
Home            
Calvi Bastia Ajaccio Solenzara Figari M. Calamita Guardiavecchia Capo Mele Albenga Nice Pisa / S. Giusto Isola Di Palmaria Grosseto Cannes Olbia / Costa Smeralda St-Raphael Volterra Monte Argentario Sarzana / Luni Monte Malanotte Genova / Sestri Alghero Le Luc

Om een weerknop op uw website of weblog te plaatsen, copieer onderstaande code en plak die in uw pagina. In het eerste vakje staat HTML-code, in het tweede vakje UBB-code.


Add to Google

Details

Wind speed:6 bf, 23 kn, 11.8 m/s, 26.5 miles/h, 42.6 km/h
Wind direction:N, 360°
Visibility:Greater than 10000 m, 10 km, 32800 ft, 6.2 miles
Clouds:CAVOC
Temperature:30°C, 86°F
Gefühlte Temperatur:28°C, 83°F
Dew-point:8°C, 46°F
Atmospheric pressure:1019 hPa, 764.3 mmHg, 30.09 inHg, 1.006 atm
Relative humidity:25.3 %
METAR:LFKC 231300Z 36023KT CAVOK 30/08 Q1019 NOSIG

Snelkoppelingen

Actuele weersinformatie van de hele wereld. Voeg locaties toe met het plus (+) symbool. Deze snelkoppelingen kunnen worden toegevoegd aan Google.

Lid van de Technetium groep

website free tracking
StatCounter NetStat W3C Validator

23-04-2019 12:45:29
astro.technetium.be money.technetium.be phote.technetium.be tafeltennistafel.technetium.be www.ligfiets.net